Time;durP1;ratioP1;P1;durP2;ratioP2;P2;SDS_P1;SDS_P2;PMS_P1;PMS_P2;Temp;Humidity;BMP_temperature;BMP_pressure;BME280_temperature;BME280_humidity;BME280_pressure;Samples;Min_cycle;Max_cycle;Signal;HPM_P1;HPM_P2
2022/01/05 00:01:06;;;;;;;5.82;3.40;;;15.60;63.20;;;;;;5069712;28;20067;-63
2022/01/05 00:03:35;;;;;;;12.82;7.50;;;15.60;63.10;;;;;;5069217;28;20028;-62
2022/01/05 00:06:03;;;;;;;7.75;4.50;;;15.60;63.10;;;;;;5072307;28;20031;-63
2022/01/05 00:08:29;;;;;;;5.38;2.63;;;15.60;63.10;;;;;;5071780;28;20551;-63
2022/01/05 00:10:55;;;;;;;4.10;2.60;;;15.60;63.10;;;;;;5069031;28;20036;-63
2022/01/05 00:13:21;;;;;;;5.45;2.60;;;15.60;63.00;;;;;;5071144;28;20043;-64
2022/01/05 00:15:48;;;;;;;3.40;2.33;;;15.60;63.10;;;;;;5085932;28;20357;-62
2022/01/05 00:18:14;;;;;;;6.18;2.60;;;15.60;63.10;;;;;;5078215;28;20047;-64
2022/01/05 00:20:40;;;;;;;4.53;2.30;;;15.60;63.10;;;;;;5083499;28;20060;-64
2022/01/05 00:23:06;;;;;;;5.63;3.72;;;15.60;63.10;;;;;;5071504;28;20032;-63
2022/01/05 00:25:33;;;;;;;5.72;2.42;;;15.60;63.10;;;;;;5072098;28;20380;-64
2022/01/05 00:27:59;;;;;;;4.25;2.65;;;15.50;63.20;;;;;;5070508;28;20024;-62
2022/01/05 00:30:25;;;;;;;5.85;2.92;;;15.40;62.90;;;;;;5071403;28;20044;-64
2022/01/05 00:32:50;;;;;;;5.53;3.45;;;15.30;62.50;;;;;;5069423;28;20473;-63
2022/01/05 00:35:16;;;;;;;4.93;3.05;;;15.20;62.60;;;;;;5083415;28;20511;-63
2022/01/05 00:37:42;;;;;;;6.70;2.92;;;15.20;62.40;;;;;;5071094;28;20058;-63
2022/01/05 00:40:08;;;;;;;5.03;3.20;;;15.10;62.60;;;;;;5071920;28;20473;-63
2022/01/05 00:42:34;;;;;;;9.43;3.30;;;15.00;62.60;;;;;;5070103;28;20083;-62
2022/01/05 00:45:00;;;;;;;6.55;3.35;;;15.10;62.70;;;;;;5070703;28;20060;-63
2022/01/05 00:47:26;;;;;;;7.03;3.75;;;15.10;62.20;;;;;;5070339;28;20028;-62
2022/01/05 00:49:52;;;;;;;5.72;3.75;;;15.00;62.40;;;;;;5072348;28;20493;-63
2022/01/05 00:52:18;;;;;;;4.82;3.47;;;15.00;62.40;;;;;;5070541;28;20044;-64
2022/01/05 00:54:45;;;;;;;5.50;3.50;;;15.00;62.20;;;;;;5070379;28;20020;-63
2022/01/05 00:57:11;;;;;;;6.53;3.67;;;15.00;61.50;;;;;;5071340;28;20066;-62
2022/01/05 00:59:37;;;;;;;7.70;3.90;;;15.00;61.20;;;;;;5069454;28;20059;-67
2022/01/05 01:02:03;;;;;;;6.05;3.72;;;14.90;60.80;;;;;;5067882;28;20115;-63
2022/01/05 01:04:29;;;;;;;8.60;4.22;;;14.80;60.90;;;;;;5069359;28;20064;-64
2022/01/05 01:06:55;;;;;;;9.90;3.80;;;14.80;61.10;;;;;;5052150;28;20124;-63
2022/01/05 01:09:20;;;;;;;6.28;3.55;;;14.70;61.00;;;;;;5072061;28;20435;-63
2022/01/05 01:11:47;;;;;;;6.28;3.67;;;14.70;61.10;;;;;;5069877;28;20049;-63
2022/01/05 01:14:12;;;;;;;4.65;2.88;;;14.60;61.20;;;;;;5070455;28;20327;-63
2022/01/05 01:16:38;;;;;;;5.07;3.13;;;14.60;61.40;;;;;;5069964;28;20040;-66
2022/01/05 01:19:04;;;;;;;5.20;3.40;;;14.50;61.50;;;;;;5069199;28;20037;-63
2022/01/05 01:21:30;;;;;;;4.65;3.15;;;14.40;61.70;;;;;;5070118;28;20039;-63
2022/01/05 01:23:56;;;;;;;5.47;3.17;;;14.40;61.80;;;;;;5076161;28;20024;-63
2022/01/05 01:26:31;;;;;;;5.72;2.88;;;14.40;61.80;;;;;;5069556;28;20392;-63
2022/01/05 01:28:58;;;;;;;5.57;2.83;;;14.30;62.00;;;;;;5070206;28;20104;-63
2022/01/05 01:31:25;;;;;;;5.07;3.17;;;14.30;62.30;;;;;;5069551;28;20024;-64
2022/01/05 01:33:51;;;;;;;4.63;2.72;;;14.20;62.50;;;;;;5068982;28;20047;-63
2022/01/05 01:36:17;;;;;;;5.13;3.00;;;14.20;62.50;;;;;;5071006;28;20103;-63
2022/01/05 01:38:43;;;;;;;6.03;3.08;;;14.30;62.50;;;;;;5068569;28;20025;-64
2022/01/05 01:41:27;;;;;;;4.35;3.10;;;14.30;62.60;;;;;;5078744;28;20074;-63
2022/01/05 01:43:53;;;;;;;7.15;2.70;;;14.30;62.70;;;;;;5068084;28;20024;-63
2022/01/05 01:46:19;;;;;;;4.15;2.60;;;14.30;62.80;;;;;;5066999;28;20047;-63
2022/01/05 01:48:45;;;;;;;3.30;2.10;;;14.20;63.10;;;;;;5084656;28;20090;-64
2022/01/05 01:51:11;;;;;;;4.13;2.75;;;14.20;63.10;;;;;;5070396;28;20064;-63
2022/01/05 01:53:36;;;;;;;7.35;2.30;;;14.20;63.20;;;;;;5069202;28;20491;-63
2022/01/05 01:56:05;;;;;;;3.67;2.35;;;14.20;63.10;;;;;;5074726;28;20112;-64
2022/01/05 01:58:35;;;;;;;3.22;2.10;;;14.20;63.10;;;;;;5100294;28;20089;-64
2022/01/05 02:01:02;;;;;;;8.63;2.85;;;14.30;63.10;;;;;;5069468;28;20618;-63
2022/01/05 02:03:28;;;;;;;4.93;2.25;;;14.30;62.90;;;;;;5070858;28;20090;-63
2022/01/05 02:05:54;;;;;;;3.20;1.90;;;14.30;62.80;;;;;;5070868;28;20025;-63
2022/01/05 02:08:20;;;;;;;3.67;1.80;;;14.30;63.00;;;;;;5072436;28;20024;-63
2022/01/05 02:10:46;;;;;;;3.58;2.15;;;14.30;63.00;;;;;;5069694;28;20457;-63
2022/01/05 02:13:12;;;;;;;4.60;1.90;;;14.20;63.10;;;;;;5072309;28;21477;-64
2022/01/05 02:15:41;;;;;;;3.70;2.00;;;14.20;63.10;;;;;;5070084;28;20090;-64
2022/01/05 02:18:20;;;;;;;2.90;1.80;;;14.10;63.30;;;;;;5072852;28;20021;-63
2022/01/05 02:20:47;;;;;;;3.03;1.92;;;14.10;63.50;;;;;;5070384;28;20111;-63
2022/01/05 02:23:13;;;;;;;4.25;1.60;;;14.10;63.50;;;;;;5071956;28;20466;-65
2022/01/05 02:25:39;;;;;;;3.50;1.83;;;14.00;63.60;;;;;;5072836;28;20470;-63
2022/01/05 02:28:05;;;;;;;4.45;1.48;;;14.10;63.70;;;;;;5073118;28;20047;-63
2022/01/05 02:30:31;;;;;;;3.90;1.38;;;14.10;63.60;;;;;;5052995;28;20044;-63
2022/01/05 02:32:57;;;;;;;1.73;1.08;;;14.10;63.60;;;;;;5070492;28;20060;-63
2022/01/05 02:35:24;;;;;;;2.00;1.20;;;14.10;63.70;;;;;;5071228;28;20078;-63
2022/01/05 02:37:53;;;;;;;3.03;1.30;;;14.20;63.80;;;;;;5069389;28;20020;-63
2022/01/05 02:40:24;;;;;;;2.92;1.20;;;14.20;63.70;;;;;;5070870;28;20108;-64
2022/01/05 02:42:54;;;;;;;1.98;1.25;;;14.20;63.60;;;;;;5071964;28;20081;-63
2022/01/05 02:45:21;;;;;;;3.20;1.08;;;14.30;63.50;;;;;;5069696;28;20044;-63
2022/01/05 02:47:48;;;;;;;1.48;0.98;;;14.30;63.50;;;;;;5053142;28;20025;-63
2022/01/05 02:50:14;;;;;;;5.32;1.00;;;14.30;63.60;;;;;;5071451;28;20040;-63
2022/01/05 02:52:40;;;;;;;1.77;0.90;;;14.20;63.50;;;;;;5072418;28;20067;-63
2022/01/05 02:55:07;;;;;;;1.20;0.70;;;14.20;63.50;;;;;;5073008;28;20017;-63
2022/01/05 02:57:33;;;;;;;0.80;0.70;;;14.20;63.50;;;;;;5073480;28;20032;-63
2022/01/05 03:00:00;;;;;;;1.17;0.80;;;14.20;63.50;;;;;;5055947;28;20036;-63
2022/01/05 03:02:26;;;;;;;3.65;0.90;;;14.10;63.70;;;;;;5074762;28;20120;-63
2022/01/05 03:04:51;;;;;;;1.80;1.00;;;14.00;64.00;;;;;;5071076;28;20085;-63
2022/01/05 03:07:17;;;;;;;1.17;0.68;;;14.00;64.20;;;;;;5073025;28;20051;-62
2022/01/05 03:12:28;;;;;;;0.95;0.60;;;13.90;64.00;;;;;;5054838;28;20079;-63
2022/01/05 03:14:53;;;;;;;1.20;0.70;;;14.00;63.80;;;;;;5071052;28;20456;-64
2022/01/05 03:17:19;;;;;;;0.60;0.50;;;14.00;63.70;;;;;;5072182;28;20027;-63
2022/01/05 03:19:45;;;;;;;1.02;0.70;;;14.00;63.50;;;;;;5071457;28;20029;-68
2022/01/05 03:22:11;;;;;;;1.77;0.75;;;14.00;63.40;;;;;;5072530;28;20066;-63
2022/01/05 03:24:36;;;;;;;0.55;0.50;;;14.00;63.50;;;;;;5071971;28;20025;-63
2022/01/05 03:27:02;;;;;;;6.47;0.80;;;14.00;63.50;;;;;;5072233;28;20469;-64
2022/01/05 03:29:28;;;;;;;1.67;0.73;;;14.00;63.40;;;;;;5072157;28;20414;-64
2022/01/05 03:31:54;;;;;;;2.78;0.70;;;14.00;63.50;;;;;;5070071;28;20119;-65
2022/01/05 03:34:20;;;;;;;1.33;0.60;;;13.90;63.50;;;;;;5077371;28;20115;-64
2022/01/05 03:36:46;;;;;;;0.98;0.52;;;13.90;63.70;;;;;;5080190;28;20033;-68
2022/01/05 03:39:13;;;;;;;1.10;0.70;;;13.90;63.60;;;;;;5072110;28;20385;-64
2022/01/05 03:41:39;;;;;;;1.27;0.75;;;13.90;63.70;;;;;;5072810;28;20028;-63
2022/01/05 03:44:05;;;;;;;1.20;0.60;;;13.90;63.70;;;;;;5070500;28;20569;-63
2022/01/05 03:46:31;;;;;;;1.10;0.75;;;13.90;63.80;;;;;;5071075;28;20167;-63
2022/01/05 03:48:56;;;;;;;1.25;0.73;;;13.80;63.80;;;;;;5070167;28;20016;-63
2022/01/05 03:51:22;;;;;;;0.60;0.57;;;13.80;63.70;;;;;;5074037;28;20477;-63
2022/01/05 03:53:48;;;;;;;0.75;0.60;;;13.90;63.80;;;;;;5070586;28;20040;-67
2022/01/05 03:56:14;;;;;;;1.00;0.77;;;13.90;63.70;;;;;;5071655;28;20446;-63
2022/01/05 03:58:39;;;;;;;2.28;0.85;;;13.80;63.60;;;;;;5071670;28;20028;-63
2022/01/05 04:01:05;;;;;;;1.00;0.70;;;13.80;63.90;;;;;;5071326;28;20154;-62
2022/01/05 04:03:31;;;;;;;1.60;0.75;;;13.70;64.00;;;;;;5071908;28;20024;-62
2022/01/05 04:05:56;;;;;;;1.52;0.60;;;13.70;64.10;;;;;;5067975;28;20392;-62
2022/01/05 04:08:22;;;;;;;1.23;0.73;;;13.60;64.40;;;;;;5072066;28;20036;-63
2022/01/05 04:10:48;;;;;;;1.85;0.98;;;13.60;64.60;;;;;;5070521;28;20210;-66
2022/01/05 04:13:15;;;;;;;1.50;1.00;;;13.60;64.80;;;;;;5070419;28;20382;-62
2022/01/05 04:15:41;;;;;;;1.08;0.85;;;13.60;64.80;;;;;;5070647;28;20032;-63
2022/01/05 04:18:07;;;;;;;3.25;0.90;;;13.60;64.70;;;;;;5071264;28;20037;-63
2022/01/05 04:20:33;;;;;;;1.38;0.75;;;13.70;64.60;;;;;;5071645;28;20374;-63
2022/01/05 04:22:59;;;;;;;1.17;0.65;;;13.70;64.50;;;;;;5070204;28;20085;-62
2022/01/05 04:25:24;;;;;;;1.38;0.70;;;13.70;64.50;;;;;;5070651;28;20032;-62
2022/01/05 04:27:51;;;;;;;1.63;0.80;;;13.60;64.40;;;;;;5070053;28;20031;-67
2022/01/05 04:30:17;;;;;;;0.60;0.60;;;13.60;64.40;;;;;;5068468;28;20033;-63
2022/01/05 04:32:43;;;;;;;1.08;0.70;;;13.60;64.40;;;;;;5071286;28;20039;-63
2022/01/05 04:35:12;;;;;;;1.90;0.80;;;13.60;64.10;;;;;;5070998;28;20442;-63
2022/01/05 04:37:38;;;;;;;2.00;0.80;;;13.60;63.70;;;;;;5070625;28;20032;-63
2022/01/05 04:40:04;;;;;;;2.30;0.90;;;13.60;63.10;;;;;;5075995;28;20036;-64
2022/01/05 04:42:30;;;;;;;2.72;1.02;;;13.50;62.60;;;;;;5070602;28;20521;-63
2022/01/05 04:44:56;;;;;;;1.23;0.75;;;13.50;62.00;;;;;;5070773;28;20147;-63
2022/01/05 04:47:22;;;;;;;1.45;0.95;;;13.50;61.30;;;;;;5071351;28;20492;-63
2022/01/05 04:49:48;;;;;;;1.88;0.90;;;13.40;60.60;;;;;;5070128;28;20040;-63
2022/01/05 04:52:14;;;;;;;0.93;0.80;;;13.40;61.00;;;;;;5069575;28;20043;-65
2022/01/05 04:54:40;;;;;;;2.15;0.73;;;13.30;60.70;;;;;;5070224;28;20115;-63
2022/01/05 04:57:06;;;;;;;2.55;0.70;;;13.20;60.30;;;;;;5076682;28;20470;-64
2022/01/05 04:59:33;;;;;;;2.05;0.70;;;13.20;60.60;;;;;;5073590;28;20123;-63
2022/01/05 05:02:17;;;;;;;1.23;0.68;;;13.30;60.40;;;;;;5069975;28;20032;-64
2022/01/05 05:04:43;;;;;;;1.23;0.80;;;13.30;60.00;;;;;;5059372;28;20031;-63
2022/01/05 05:07:08;;;;;;;1.55;0.77;;;13.20;59.40;;;;;;5068811;28;20028;-65
2022/01/05 05:09:34;;;;;;;1.10;0.57;;;13.10;59.30;;;;;;5068460;28;20028;-64
2022/01/05 05:12:00;;;;;;;3.60;0.50;;;13.10;59.00;;;;;;5068643;28;20140;-63
2022/01/05 05:14:25;;;;;;;2.97;0.60;;;13.10;59.00;;;;;;5072654;28;20385;-62
2022/01/05 05:16:51;;;;;;;0.85;0.50;;;13.10;59.00;;;;;;5086600;28;20025;-65
2022/01/05 05:19:17;;;;;;;1.15;0.50;;;13.10;58.80;;;;;;5068883;28;20111;-62
2022/01/05 05:21:43;;;;;;;0.73;0.52;;;13.10;58.70;;;;;;5069395;28;20132;-62
2022/01/05 05:24:12;;;;;;;3.47;0.70;;;13.00;59.10;;;;;;5069166;28;20108;-62
2022/01/05 05:26:38;;;;;;;2.67;0.70;;;13.00;59.50;;;;;;5071426;28;20377;-63
2022/01/05 05:29:03;;;;;;;2.42;0.90;;;12.90;59.90;;;;;;5069101;28;20029;-63
2022/01/05 05:31:29;;;;;;;1.13;0.70;;;12.80;60.30;;;;;;5071824;28;20032;-62
2022/01/05 05:33:55;;;;;;;1.15;0.68;;;12.90;60.70;;;;;;5070159;28;20401;-67
2022/01/05 05:36:21;;;;;;;0.90;0.60;;;12.80;60.90;;;;;;5074270;28;20031;-62
2022/01/05 05:38:46;;;;;;;1.42;0.65;;;12.80;61.10;;;;;;5075055;28;20029;-63
2022/01/05 05:41:12;;;;;;;4.47;0.98;;;12.70;61.10;;;;;;5074147;28;20029;-63
2022/01/05 05:43:38;;;;;;;1.00;0.80;;;12.60;61.40;;;;;;5074252;28;20499;-63
2022/01/05 05:46:03;;;;;;;3.83;0.85;;;12.40;61.90;;;;;;5074035;28;20477;-63
2022/01/05 05:48:29;;;;;;;3.58;0.73;;;12.40;62.20;;;;;;5079615;28;20040;-64
2022/01/05 05:50:55;;;;;;;2.33;0.70;;;12.40;62.50;;;;;;5074181;28;20025;-68
2022/01/05 05:53:20;;;;;;;1.95;0.90;;;12.30;62.90;;;;;;5073493;28;20438;-62
2022/01/05 05:55:46;;;;;;;1.63;0.60;;;12.20;63.30;;;;;;5073977;28;20033;-63
2022/01/05 05:58:12;;;;;;;3.22;1.10;;;12.20;63.80;;;;;;5073480;28;20040;-63
2022/01/05 06:00:37;;;;;;;1.45;0.77;;;12.30;63.80;;;;;;5074804;28;20037;-63
2022/01/05 06:03:03;;;;;;;3.45;0.77;;;12.30;63.90;;;;;;5073631;28;20063;-63
2022/01/05 06:05:29;;;;;;;3.28;1.00;;;12.30;64.00;;;;;;5073769;28;20369;-64
2022/01/05 06:07:55;;;;;;;2.90;1.27;;;12.30;64.50;;;;;;5080969;28;20528;-67
2022/01/05 06:10:21;;;;;;;1.63;1.00;;;12.20;64.80;;;;;;5072605;28;20381;-63
2022/01/05 06:12:46;;;;;;;3.05;0.88;;;12.20;65.20;;;;;;5072672;28;20045;-64
2022/01/05 06:15:12;;;;;;;1.55;0.70;;;12.10;65.50;;;;;;5075822;28;20036;-63
2022/01/05 06:17:38;;;;;;;2.20;0.80;;;12.10;65.60;;;;;;5075825;28;20028;-64
2022/01/05 06:20:05;;;;;;;1.23;0.60;;;12.20;65.50;;;;;;5074994;28;20033;-64
2022/01/05 06:22:31;;;;;;;1.85;0.70;;;12.10;65.40;;;;;;5074357;28;20052;-63
2022/01/05 06:24:57;;;;;;;1.63;0.90;;;12.00;66.00;;;;;;5071527;28;20031;-68
2022/01/05 06:27:23;;;;;;;2.15;1.00;;;12.00;66.20;;;;;;5073552;28;20100;-63
2022/01/05 06:29:49;;;;;;;3.42;1.02;;;12.00;66.20;;;;;;5072242;28;20055;-64
2022/01/05 06:32:15;;;;;;;2.60;1.20;;;12.00;66.80;;;;;;5072650;28;20028;-63
2022/01/05 06:34:40;;;;;;;3.88;1.42;;;12.00;66.40;;;;;;5072959;28;20484;-63
2022/01/05 06:37:06;;;;;;;3.13;1.35;;;12.00;66.30;;;;;;5086989;28;20024;-63
2022/01/05 06:39:32;;;;;;;6.28;1.35;;;12.00;66.50;;;;;;5091517;28;20531;-63
2022/01/05 06:41:58;;;;;;;3.10;1.45;;;12.00;66.80;;;;;;5074021;28;20415;-67
2022/01/05 06:44:24;;;;;;;3.80;1.20;;;12.00;66.80;;;;;;5071637;28;20028;-63
2022/01/05 06:46:50;;;;;;;2.83;1.30;;;12.00;66.60;;;;;;5072836;28;20370;-62
2022/01/05 06:49:15;;;;;;;1.75;1.02;;;12.10;66.50;;;;;;5072229;28;20477;-64
2022/01/05 06:51:41;;;;;;;1.67;0.80;;;12.10;66.60;;;;;;5073536;28;20033;-65
2022/01/05 06:54:07;;;;;;;1.95;0.73;;;12.10;66.60;;;;;;5077351;28;20107;-65
2022/01/05 06:56:32;;;;;;;4.05;1.25;;;12.10;66.70;;;;;;5072248;28;20445;-64
2022/01/05 06:58:58;;;;;;;2.33;0.90;;;11.90;67.10;;;;;;5071927;28;20074;-64
2022/01/05 07:01:24;;;;;;;1.73;1.15;;;11.70;67.70;;;;;;5073135;28;20060;-64
2022/01/05 07:03:49;;;;;;;2.53;1.23;;;11.60;68.10;;;;;;5090889;28;20047;-65
2022/01/05 07:06:15;;;;;;;2.17;1.10;;;11.50;68.40;;;;;;5092648;28;20534;-63
2022/01/05 07:08:41;;;;;;;2.75;1.33;;;11.50;68.60;;;;;;5093466;28;20039;-64
2022/01/05 07:11:06;;;;;;;1.67;1.10;;;11.50;68.60;;;;;;5082865;28;20053;-65
2022/01/05 07:13:32;;;;;;;2.63;1.40;;;11.60;68.60;;;;;;5071720;28;20033;-65
2022/01/05 07:15:58;;;;;;;3.90;1.10;;;11.60;68.70;;;;;;5071837;28;20070;-65
2022/01/05 07:18:24;;;;;;;1.83;1.20;;;11.60;68.30;;;;;;5073697;28;20861;-67
2022/01/05 07:20:49;;;;;;;1.40;1.10;;;11.60;67.90;;;;;;5072985;28;20481;-64
2022/01/05 07:23:15;;;;;;;2.30;1.40;;;11.50;68.00;;;;;;5071287;28;20025;-64
2022/01/05 07:25:41;;;;;;;1.88;1.10;;;11.50;68.00;;;;;;5055121;28;20112;-64
2022/01/05 07:28:09;;;;;;;3.60;1.40;;;11.50;67.60;;;;;;5070408;28;20474;-64
2022/01/05 07:30:35;;;;;;;1.88;1.40;;;11.60;67.40;;;;;;5072228;28;20063;-64
2022/01/05 07:33:00;;;;;;;1.42;1.10;;;11.60;67.10;;;;;;5072932;28;20028;-65
2022/01/05 07:35:26;;;;;;;4.25;1.25;;;11.60;66.90;;;;;;5071101;28;20525;-64
2022/01/05 07:37:52;;;;;;;2.92;1.30;;;11.60;66.70;;;;;;5067407;28;20025;-66
2022/01/05 07:40:18;;;;;;;1.77;1.27;;;11.70;66.60;;;;;;5065265;28;20021;-66
2022/01/05 07:42:44;;;;;;;1.70;1.20;;;11.70;66.60;;;;;;5070107;28;20031;-66
2022/01/05 07:45:10;;;;;;;2.15;1.30;;;11.70;66.10;;;;;;5069958;28;20044;-65
2022/01/05 07:47:36;;;;;;;1.63;1.00;;;11.70;65.70;;;;;;5067488;28;20434;-70
2022/01/05 07:50:04;;;;;;;2.72;1.20;;;11.70;65.60;;;;;;5068729;28;20036;-71
2022/01/05 07:52:29;;;;;;;4.43;1.00;;;11.70;65.60;;;;;;5072488;28;20086;-71
2022/01/05 07:54:55;;;;;;;4.55;1.83;;;11.70;65.00;;;;;;5069900;28;20040;-69
2022/01/05 07:57:21;;;;;;;2.00;1.10;;;11.70;64.90;;;;;;5069516;28;20029;-69
2022/01/05 07:59:47;;;;;;;2.38;1.10;;;11.70;64.60;;;;;;5070055;28;20509;-68
2022/01/05 08:02:13;;;;;;;2.75;0.90;;;11.70;64.20;;;;;;5071025;28;20031;-69
2022/01/05 08:04:38;;;;;;;1.92;1.10;;;11.70;63.30;;;;;;5071968;28;20397;-64
2022/01/05 08:07:04;;;;;;;2.28;1.40;;;11.60;63.80;;;;;;5069716;28;20028;-69
2022/01/05 08:09:30;;;;;;;5.35;1.60;;;11.40;63.20;;;;;;5085580;28;20040;-65
2022/01/05 08:11:57;;;;;;;1.88;1.20;;;11.40;63.30;;;;;;5071712;28;20052;-64
2022/01/05 08:14:23;;;;;;;2.80;1.60;;;11.30;63.20;;;;;;5070617;28;20078;-65
2022/01/05 08:16:49;;;;;;;3.80;2.20;;;11.20;63.00;;;;;;5081202;28;20036;-64
2022/01/05 08:19:15;;;;;;;4.35;2.10;;;11.20;62.90;;;;;;5071349;28;20510;-64
2022/01/05 08:21:40;;;;;;;4.93;1.88;;;11.20;62.90;;;;;;5072037;28;20060;-67
2022/01/05 08:24:06;;;;;;;1.88;1.40;;;11.20;62.80;;;;;;5071598;28;20478;-66
2022/01/05 08:26:33;;;;;;;2.17;1.38;;;11.30;62.50;;;;;;5072388;28;20029;-64
2022/01/05 08:28:59;;;;;;;1.45;1.05;;;11.30;62.10;;;;;;5071914;28;20377;-65
2022/01/05 08:31:25;;;;;;;1.90;1.30;;;11.30;62.10;;;;;;5070523;28;20465;-65
2022/01/05 08:33:51;;;;;;;3.75;2.40;;;11.30;62.10;;;;;;5071328;28;20123;-65
2022/01/05 08:36:17;;;;;;;2.50;1.30;;;11.20;61.70;;;;;;5070726;28;20520;-65
2022/01/05 08:38:43;;;;;;;4.18;1.02;;;11.20;61.60;;;;;;5070792;28;20083;-65
2022/01/05 08:41:08;;;;;;;2.78;1.08;;;11.10;62.00;;;;;;5087626;28;20025;-69
2022/01/05 08:43:34;;;;;;;1.90;0.73;;;11.10;62.40;;;;;;5069938;28;20069;-65
2022/01/05 08:46:00;;;;;;;1.42;0.82;;;11.00;62.10;;;;;;5069496;28;20021;-67
2022/01/05 08:48:26;;;;;;;1.35;0.82;;;11.10;62.10;;;;;;5070627;28;20095;-65
2022/01/05 08:50:52;;;;;;;1.38;0.90;;;11.00;62.50;;;;;;5070761;28;20180;-65
2022/01/05 08:53:19;;;;;;;1.92;0.75;;;11.10;62.70;;;;;;5068468;28;20424;-65
2022/01/05 08:55:48;;;;;;;1.15;0.90;;;11.00;62.80;;;;;;5086960;28;20034;-64
2022/01/05 08:58:15;;;;;;;1.83;1.20;;;10.90;63.10;;;;;;5070010;28;20031;-70
2022/01/05 09:00:41;;;;;;;4.82;1.40;;;11.00;63.20;;;;;;5069702;28;20043;-68
2022/01/05 09:03:07;;;;;;;2.75;1.45;;;11.10;63.10;;;;;;5073386;28;20028;-66
2022/01/05 09:05:34;;;;;;;2.17;1.00;;;11.10;63.30;;;;;;5068750;28;20396;-65
2022/01/05 09:08:01;;;;;;;1.60;1.15;;;11.10;63.80;;;;;;5071316;28;20028;-65
2022/01/05 09:10:27;;;;;;;1.65;0.95;;;11.10;64.10;;;;;;5069413;28;20477;-71
2022/01/05 09:12:53;;;;;;;1.58;1.20;;;11.00;64.50;;;;;;5062511;28;20052;-68
2022/01/05 09:15:19;;;;;;;3.42;1.40;;;11.10;64.70;;;;;;5068970;28;20184;-58
2022/01/05 09:17:45;;;;;;;1.90;1.10;;;11.00;64.90;;;;;;5069903;28;20036;-69
2022/01/05 09:20:11;;;;;;;1.13;1.00;;;11.00;65.30;;;;;;5069398;28;20033;-66
2022/01/05 09:22:38;;;;;;;2.00;1.00;;;11.00;65.40;;;;;;5086784;28;20029;-70
2022/01/05 09:25:09;;;;;;;1.73;1.10;;;11.00;65.80;;;;;;5071051;28;20021;-74
2022/01/05 09:27:37;;;;;;;2.10;1.20;;;11.00;65.60;;;;;;5071714;28;20117;-73
2022/01/05 09:30:08;;;;;;;2.40;1.23;;;10.90;65.60;;;;;;5070436;28;20028;-70
2022/01/05 09:32:36;;;;;;;2.00;1.10;;;10.90;65.80;;;;;;5070476;28;20364;-67
2022/01/05 09:35:03;;;;;;;1.67;1.02;;;10.90;66.00;;;;;;5071065;28;20029;-75
2022/01/05 09:37:34;;;;;;;2.08;1.17;;;11.00;65.50;;;;;;5069760;28;20024;-65
2022/01/05 09:42:44;;;;;;;;;;;10.80;65.50;;;;;;5052075;28;20096;-67
2022/01/05 09:45:15;;;;;;;1.88;1.17;;;10.80;65.80;;;;;;5052167;28;19960;-68
2022/01/05 09:48:20;;;;;;;3.30;1.05;;;10.90;65.50;;;;;;5067754;28;20130;-67
2022/01/05 09:50:58;;;;;;;2.38;1.20;;;10.90;65.10;;;;;;5066403;28;20132;-68
2022/01/05 09:53:25;;;;;;;1.80;1.25;;;10.70;65.20;;;;;;5061810;28;20491;-68
2022/01/05 09:55:52;;;;;;;1.55;0.98;;;10.70;65.50;;;;;;5092551;28;20055;-75
2022/01/05 09:58:23;;;;;;;2.35;1.15;;;10.70;65.70;;;;;;5090210;28;20051;-68
2022/01/05 10:00:52;;;;;;;1.50;0.90;;;10.60;65.70;;;;;;5090603;28;20043;-71
2022/01/05 10:03:18;;;;;;;2.38;1.00;;;10.60;65.80;;;;;;5089658;28;20119;-70
2022/01/05 10:05:44;;;;;;;1.92;1.00;;;10.60;65.70;;;;;;5091442;28;20032;-71
2022/01/05 10:08:11;;;;;;;1.55;0.70;;;10.60;65.30;;;;;;5090170;28;20115;-71
2022/01/05 10:10:55;;;;;;;1.35;0.90;;;10.60;64.80;;;;;;5091059;28;20028;-71
2022/01/05 10:13:21;;;;;;;2.03;1.15;;;10.50;65.00;;;;;;5091068;28;20086;-71
2022/01/05 10:15:47;;;;;;;2.08;0.95;;;10.60;65.40;;;;;;5082614;28;20025;-71
2022/01/05 10:18:22;;;;;;;1.73;1.00;;;10.60;64.80;;;;;;5068777;28;20499;-72
2022/01/05 10:20:58;;;;;;;1.90;0.85;;;10.60;64.30;;;;;;5048442;28;20037;-68
2022/01/05 10:23:41;;;;;;;2.25;0.93;;;10.60;64.30;;;;;;5042585;28;20037;-68
2022/01/05 10:26:26;;;;;;;0.90;0.70;;;10.60;64.00;;;;;;5045241;28;20020;-68
2022/01/05 10:28:59;;;;;;;2.75;1.15;;;10.50;64.30;;;;;;5043515;28;20086;-68
2022/01/05 10:31:27;;;;;;;1.90;0.90;;;10.60;64.10;;;;;;5040392;28;20036;-68
2022/01/05 10:33:54;;;;;;;1.58;0.70;;;10.50;63.80;;;;;;5042395;28;20127;-67
2022/01/05 10:36:38;;;;;;;1.45;0.95;;;10.50;64.50;;;;;;5043309;28;20505;-68
2022/01/05 10:39:04;;;;;;;1.38;0.90;;;10.50;64.30;;;;;;5042520;28;20318;-70
2022/01/05 10:41:31;;;;;;;1.25;0.77;;;10.50;64.30;;;;;;5044258;28;20040;-68
2022/01/05 10:44:24;;;;;;;1.45;0.95;;;10.50;64.60;;;;;;5044013;28;20392;-67
2022/01/05 10:46:57;;;;;;;2.00;1.30;;;10.40;64.50;;;;;;5041922;28;20127;-69
2022/01/05 10:49:36;;;;;;;2.90;1.83;;;10.40;64.40;;;;;;5039958;28;20487;-72
2022/01/05 10:52:19;;;;;;;1.92;1.00;;;10.50;64.50;;;;;;5045770;28;20043;-76
2022/01/05 10:54:47;;;;;;;1.60;1.02;;;10.50;64.00;;;;;;5044347;28;20480;-71
2022/01/05 10:57:13;;;;;;;9.98;1.50;;;10.50;63.80;;;;;;5042093;28;20097;-70
2022/01/05 10:59:46;;;;;;;1.65;1.10;;;10.50;64.10;;;;;;5041667;28;20066;-74
2022/01/05 11:02:24;;;;;;;2.20;1.10;;;10.60;63.90;;;;;;5041432;28;20024;-75
2022/01/05 11:04:54;;;;;;;2.83;1.13;;;10.50;63.50;;;;;;5041603;28;20039;-75
2022/01/05 11:07:22;;;;;;;2.25;1.17;;;10.60;63.30;;;;;;5040322;28;20029;-72
2022/01/05 11:09:59;;;;;;;4.03;1.40;;;10.60;63.20;;;;;;5041818;28;20085;-74
2022/01/05 11:12:42;;;;;;;2.33;1.40;;;10.70;63.20;;;;;;5042669;28;20140;-76
2022/01/05 11:15:21;;;;;;;2.08;1.30;;;10.60;63.10;;;;;;5043678;28;20110;-73
2022/01/05 11:18:08;;;;;;;1.33;0.80;;;10.60;63.10;;;;;;5044271;28;20040;-72
2022/01/05 11:20:39;;;;;;;1.75;0.90;;;10.60;63.00;;;;;;5042517;28;20036;-73
2022/01/05 11:23:06;;;;;;;1.35;0.93;;;10.50;63.00;;;;;;5042886;28;20033;-75
2022/01/05 11:25:36;;;;;;;2.45;1.30;;;10.50;63.20;;;;;;5044031;28;21299;-73
2022/01/05 11:28:03;;;;;;;1.80;0.90;;;10.60;63.10;;;;;;5045773;28;20033;-73
2022/01/05 11:30:29;;;;;;;2.10;0.93;;;10.50;63.00;;;;;;5043538;28;20547;-73
2022/01/05 11:32:55;;;;;;;2.80;0.88;;;10.40;63.40;;;;;;5041005;28;20033;-73
2022/01/05 11:35:21;;;;;;;2.10;1.10;;;10.40;63.50;;;;;;5042392;28;20119;-72
2022/01/05 11:37:47;;;;;;;1.60;1.10;;;10.40;63.80;;;;;;5043555;28;20081;-72
2022/01/05 11:40:13;;;;;;;2.65;0.90;;;10.30;63.60;;;;;;5040612;28;20032;-74
2022/01/05 11:42:40;;;;;;;2.28;1.15;;;10.40;63.80;;;;;;5027639;28;20131;-73
2022/01/05 11:45:08;;;;;;;1.00;0.80;;;10.40;63.80;;;;;;5041882;28;20065;-73
2022/01/05 11:47:40;;;;;;;3.50;1.20;;;10.40;63.60;;;;;;5038618;28;20038;-74
2022/01/05 11:50:24;;;;;;;1.92;1.10;;;10.40;63.60;;;;;;5041752;28;20036;-71
2022/01/05 11:52:59;;;;;;;1.90;1.05;;;10.40;63.70;;;;;;5043241;28;20052;-71
2022/01/05 11:55:27;;;;;;;1.98;1.05;;;10.40;63.60;;;;;;5039939;28;20047;-65
2022/01/05 11:58:27;;;;;;;2.35;1.20;;;10.40;63.80;;;;;;5056929;28;20080;-64
2022/01/05 12:01:17;;;;;;;1.20;0.80;;;10.30;64.00;;;;;;5013843;28;20811;-68
2022/01/05 12:03:52;;;;;;;2.08;0.88;;;10.30;64.10;;;;;;5025175;28;20098;-69
2022/01/05 12:06:19;;;;;;;2.15;0.80;;;10.30;64.50;;;;;;5037369;28;20050;-67
2022/01/05 12:08:57;;;;;;;1.35;0.70;;;10.30;64.30;;;;;;5041111;28;20064;-69
2022/01/05 12:11:34;;;;;;;0.88;0.70;;;10.20;64.20;;;;;;5036743;28;20052;-69
2022/01/05 12:14:03;;;;;;;3.45;1.65;;;10.30;64.20;;;;;;5033310;28;20126;-69
2022/01/05 12:16:29;;;;;;;1.73;1.08;;;10.30;64.50;;;;;;5037147;28;20126;-67
2022/01/05 12:19:06;;;;;;;1.67;1.13;;;10.40;64.20;;;;;;5040736;28;20033;-67
2022/01/05 12:21:48;;;;;;;2.05;1.13;;;10.40;64.30;;;;;;5040696;28;20036;-68
2022/01/05 12:24:14;;;;;;;1.42;0.65;;;10.40;64.50;;;;;;5039785;28;20096;-67
2022/01/05 12:26:41;;;;;;;1.95;1.20;;;10.30;64.20;;;;;;5040224;28;20561;-66
2022/01/05 12:29:07;;;;;;;3.03;1.20;;;10.40;64.30;;;;;;5038920;28;20218;-66
2022/01/05 12:31:48;;;;;;;1.45;0.98;;;10.40;64.00;;;;;;5036975;28;20540;-64
2022/01/05 12:34:53;;;;;;;2.97;1.23;;;10.40;63.80;;;;;;5037126;28;20960;-66
2022/01/05 12:37:57;;;;;;;2.83;1.20;;;10.40;63.60;;;;;;5079653;28;20021;-65
2022/01/05 12:40:28;;;;;;;2.33;1.17;;;10.50;63.40;;;;;;5067584;28;20409;-70
2022/01/05 12:43:06;;;;;;;2.40;0.90;;;10.50;63.50;;;;;;5067263;28;20031;-67
2022/01/05 12:45:56;;;;;;;2.25;1.20;;;10.40;63.40;;;;;;5050649;28;20029;-65
2022/01/05 12:51:20;;;;;;;2.08;1.48;;;10.30;63.70;;;;;;5069600;28;20056;-66
2022/01/05 12:53:56;;;;;;;1.75;1.15;;;10.30;64.00;;;;;;5071340;28;20312;-64
2022/01/05 12:56:27;;;;;;;1.65;1.10;;;10.40;63.70;;;;;;5067295;28;20098;-73
2022/01/05 12:58:56;;;;;;;3.80;1.88;;;10.40;63.60;;;;;;5067562;28;20029;-70
2022/01/05 13:01:25;;;;;;;2.20;0.90;;;10.40;63.60;;;;;;5064167;28;20028;-72